sensor_id;sensor_type;location;lat;lon;timestamp;P1;durP1;ratioP1;P2;durP2;ratioP2
76228;SDS011;65021;53.174;18.160;2023-09-19T00:00:31;19.60;;;13.40;;
76228;SDS011;65021;53.174;18.160;2023-09-19T00:03:19;19.00;;;13.70;;
76228;SDS011;65021;53.174;18.160;2023-09-19T00:06:05;22.40;;;14.30;;
76228;SDS011;65021;53.174;18.160;2023-09-19T00:08:34;18.50;;;13.40;;
76228;SDS011;65021;53.174;18.160;2023-09-19T00:11:00;21.50;;;13.60;;
76228;SDS011;65021;53.174;18.160;2023-09-19T00:13:29;21.80;;;14.30;;
76228;SDS011;65021;53.174;18.160;2023-09-19T00:15:57;23.40;;;14.70;;
76228;SDS011;65021;53.174;18.160;2023-09-19T00:18:25;21.60;;;14.40;;
76228;SDS011;65021;53.174;18.160;2023-09-19T00:20:58;19.80;;;13.30;;
76228;SDS011;65021;53.174;18.160;2023-09-19T00:23:25;23.20;;;15.60;;
76228;SDS011;65021;53.174;18.160;2023-09-19T00:25:51;21.00;;;14.90;;
76228;SDS011;65021;53.174;18.160;2023-09-19T00:28:18;20.90;;;14.50;;
76228;SDS011;65021;53.174;18.160;2023-09-19T00:30:45;23.90;;;15.40;;
76228;SDS011;65021;53.174;18.160;2023-09-19T00:33:18;21.70;;;15.40;;
76228;SDS011;65021;53.174;18.160;2023-09-19T00:38:15;21.20;;;14.70;;
76228;SDS011;65021;53.174;18.160;2023-09-19T00:40:47;22.50;;;15.10;;
76228;SDS011;65021;53.174;18.160;2023-09-19T00:43:15;22.30;;;15.00;;
76228;SDS011;65021;53.174;18.160;2023-09-19T00:45:43;18.90;;;13.60;;
76228;SDS011;65021;53.174;18.160;2023-09-19T00:48:11;20.00;;;14.50;;
76228;SDS011;65021;53.174;18.160;2023-09-19T00:50:38;21.10;;;14.20;;
76228;SDS011;65021;53.174;18.160;2023-09-19T00:53:09;21.50;;;14.00;;
76228;SDS011;65021;53.174;18.160;2023-09-19T00:55:39;21.90;;;14.90;;
76228;SDS011;65021;53.174;18.160;2023-09-19T00:58:10;21.00;;;14.20;;
76228;SDS011;65021;53.174;18.160;2023-09-19T01:00:37;28.20;;;16.00;;
76228;SDS011;65021;53.174;18.160;2023-09-19T01:03:05;20.20;;;15.10;;
76228;SDS011;65021;53.174;18.160;2023-09-19T01:05:35;24.00;;;16.20;;
76228;SDS011;65021;53.174;18.160;2023-09-19T01:08:02;24.90;;;13.90;;
76228;SDS011;65021;53.174;18.160;2023-09-19T01:10:29;21.50;;;15.70;;
76228;SDS011;65021;53.174;18.160;2023-09-19T01:20:41;13.30;;;8.10;;
76228;SDS011;65021;53.174;18.160;2023-09-19T01:29:17;11.40;;;6.30;;
76228;SDS011;65021;53.174;18.160;2023-09-19T01:31:57;10.00;;;6.30;;
76228;SDS011;65021;53.174;18.160;2023-09-19T01:37:16;8.50;;;5.10;;
76228;SDS011;65021;53.174;18.160;2023-09-19T01:39:47;9.00;;;4.90;;
76228;SDS011;65021;53.174;18.160;2023-09-19T01:42:20;7.80;;;5.00;;
76228;SDS011;65021;53.174;18.160;2023-09-19T01:45:03;7.60;;;4.00;;
76228;SDS011;65021;53.174;18.160;2023-09-19T01:47:42;7.00;;;3.90;;
76228;SDS011;65021;53.174;18.160;2023-09-19T01:50:30;6.00;;;3.70;;
76228;SDS011;65021;53.174;18.160;2023-09-19T01:56:02;5.50;;;3.20;;
76228;SDS011;65021;53.174;18.160;2023-09-19T01:58:37;6.00;;;3.30;;
76228;SDS011;65021;53.174;18.160;2023-09-19T02:01:17;8.30;;;3.80;;
76228;SDS011;65021;53.174;18.160;2023-09-19T02:03:47;6.30;;;2.80;;
76228;SDS011;65021;53.174;18.160;2023-09-19T02:06:15;7.00;;;3.10;;
76228;SDS011;65021;53.174;18.160;2023-09-19T02:08:44;6.00;;;3.00;;
76228;SDS011;65021;53.174;18.160;2023-09-19T02:11:11;7.60;;;3.20;;
76228;SDS011;65021;53.174;18.160;2023-09-19T02:13:39;6.10;;;2.90;;
76228;SDS011;65021;53.174;18.160;2023-09-19T02:16:07;6.70;;;3.20;;
76228;SDS011;65021;53.174;18.160;2023-09-19T02:18:35;8.50;;;3.40;;
76228;SDS011;65021;53.174;18.160;2023-09-19T02:21:02;10.10;;;3.70;;
76228;SDS011;65021;53.174;18.160;2023-09-19T02:23:30;6.60;;;3.10;;
76228;SDS011;65021;53.174;18.160;2023-09-19T02:25:56;6.50;;;2.60;;
76228;SDS011;65021;53.174;18.160;2023-09-19T02:28:32;8.00;;;3.20;;
76228;SDS011;65021;53.174;18.160;2023-09-19T02:31:00;8.50;;;3.20;;
76228;SDS011;65021;53.174;18.160;2023-09-19T02:33:27;5.70;;;2.50;;
76228;SDS011;65021;53.174;18.160;2023-09-19T02:35:58;6.50;;;3.20;;
76228;SDS011;65021;53.174;18.160;2023-09-19T02:38:25;5.90;;;3.20;;
76228;SDS011;65021;53.174;18.160;2023-09-19T02:40:52;6.70;;;3.30;;
76228;SDS011;65021;53.174;18.160;2023-09-19T02:43:21;6.00;;;3.00;;
76228;SDS011;65021;53.174;18.160;2023-09-19T02:45:49;7.90;;;3.20;;
76228;SDS011;65021;53.174;18.160;2023-09-19T02:48:16;7.60;;;3.20;;
76228;SDS011;65021;53.174;18.160;2023-09-19T02:50:44;6.80;;;3.00;;
76228;SDS011;65021;53.174;18.160;2023-09-19T02:53:11;7.30;;;3.20;;
76228;SDS011;65021;53.174;18.160;2023-09-19T02:55:39;8.10;;;3.40;;
76228;SDS011;65021;53.174;18.160;2023-09-19T02:58:09;6.60;;;3.40;;
76228;SDS011;65021;53.174;18.160;2023-09-19T03:00:37;6.50;;;2.90;;
76228;SDS011;65021;53.174;18.160;2023-09-19T03:03:04;8.60;;;3.70;;
76228;SDS011;65021;53.174;18.160;2023-09-19T03:05:32;6.50;;;3.20;;
76228;SDS011;65021;53.174;18.160;2023-09-19T03:07:59;10.00;;;4.10;;
76228;SDS011;65021;53.174;18.160;2023-09-19T03:10:29;11.40;;;3.40;;
76228;SDS011;65021;53.174;18.160;2023-09-19T03:12:57;11.00;;;3.50;;
76228;SDS011;65021;53.174;18.160;2023-09-19T03:15:26;8.80;;;4.20;;
76228;SDS011;65021;53.174;18.160;2023-09-19T03:17:53;7.00;;;3.90;;
76228;SDS011;65021;53.174;18.160;2023-09-19T03:20:20;6.80;;;3.80;;
76228;SDS011;65021;53.174;18.160;2023-09-19T03:22:47;9.20;;;4.50;;
76228;SDS011;65021;53.174;18.160;2023-09-19T03:25:14;8.30;;;4.60;;
76228;SDS011;65021;53.174;18.160;2023-09-19T03:27:43;13.60;;;5.00;;
76228;SDS011;65021;53.174;18.160;2023-09-19T03:30:09;9.10;;;5.10;;
76228;SDS011;65021;53.174;18.160;2023-09-19T03:32:45;11.00;;;5.30;;
76228;SDS011;65021;53.174;18.160;2023-09-19T03:35:16;10.10;;;4.90;;
76228;SDS011;65021;53.174;18.160;2023-09-19T03:37:43;10.20;;;5.10;;
76228;SDS011;65021;53.174;18.160;2023-09-19T03:40:10;11.70;;;5.60;;
76228;SDS011;65021;53.174;18.160;2023-09-19T03:42:40;9.80;;;6.00;;
76228;SDS011;65021;53.174;18.160;2023-09-19T03:45:08;12.90;;;5.00;;
76228;SDS011;65021;53.174;18.160;2023-09-19T03:47:38;9.10;;;4.90;;
76228;SDS011;65021;53.174;18.160;2023-09-19T03:50:06;10.40;;;5.20;;
76228;SDS011;65021;53.174;18.160;2023-09-19T03:52:34;9.00;;;4.70;;
76228;SDS011;65021;53.174;18.160;2023-09-19T03:55:01;11.90;;;5.20;;
76228;SDS011;65021;53.174;18.160;2023-09-19T03:57:29;10.20;;;4.80;;
76228;SDS011;65021;53.174;18.160;2023-09-19T03:59:56;7.90;;;5.10;;
76228;SDS011;65021;53.174;18.160;2023-09-19T04:02:23;9.60;;;4.40;;
76228;SDS011;65021;53.174;18.160;2023-09-19T04:04:51;9.90;;;4.30;;
76228;SDS011;65021;53.174;18.160;2023-09-19T04:07:18;10.80;;;5.00;;
76228;SDS011;65021;53.174;18.160;2023-09-19T04:09:48;9.80;;;5.00;;
76228;SDS011;65021;53.174;18.160;2023-09-19T04:12:15;9.30;;;4.50;;
76228;SDS011;65021;53.174;18.160;2023-09-19T04:14:44;10.60;;;4.60;;
76228;SDS011;65021;53.174;18.160;2023-09-19T04:17:11;9.80;;;4.80;;
76228;SDS011;65021;53.174;18.160;2023-09-19T04:19:37;8.60;;;4.60;;
76228;SDS011;65021;53.174;18.160;2023-09-19T04:22:04;10.20;;;4.70;;
76228;SDS011;65021;53.174;18.160;2023-09-19T04:24:30;7.70;;;4.30;;
76228;SDS011;65021;53.174;18.160;2023-09-19T04:26:58;8.50;;;3.80;;
76228;SDS011;65021;53.174;18.160;2023-09-19T04:29:25;8.90;;;4.80;;
76228;SDS011;65021;53.174;18.160;2023-09-19T04:31:53;8.00;;;4.50;;
76228;SDS011;65021;53.174;18.160;2023-09-19T04:34:20;9.60;;;4.70;;
76228;SDS011;65021;53.174;18.160;2023-09-19T04:36:46;7.40;;;4.10;;
76228;SDS011;65021;53.174;18.160;2023-09-19T04:39:13;10.00;;;4.60;;
76228;SDS011;65021;53.174;18.160;2023-09-19T04:41:39;10.20;;;5.10;;
76228;SDS011;65021;53.174;18.160;2023-09-19T04:44:07;9.10;;;4.90;;
76228;SDS011;65021;53.174;18.160;2023-09-19T04:46:34;12.40;;;5.00;;
76228;SDS011;65021;53.174;18.160;2023-09-19T04:49:01;9.60;;;4.60;;
76228;SDS011;65021;53.174;18.160;2023-09-19T04:51:28;8.90;;;4.40;;
76228;SDS011;65021;53.174;18.160;2023-09-19T04:54:00;10.40;;;5.20;;
76228;SDS011;65021;53.174;18.160;2023-09-19T04:56:27;8.70;;;4.40;;
76228;SDS011;65021;53.174;18.160;2023-09-19T04:58:55;9.50;;;4.50;;
76228;SDS011;65021;53.174;18.160;2023-09-19T05:01:21;7.90;;;4.80;;
76228;SDS011;65021;53.174;18.160;2023-09-19T05:03:49;9.20;;;4.80;;
76228;SDS011;65021;53.174;18.160;2023-09-19T05:06:19;10.40;;;4.40;;
76228;SDS011;65021;53.174;18.160;2023-09-19T05:08:49;8.50;;;3.70;;
76228;SDS011;65021;53.174;18.160;2023-09-19T05:11:17;8.50;;;4.20;;
76228;SDS011;65021;53.174;18.160;2023-09-19T05:13:45;7.50;;;4.30;;
76228;SDS011;65021;53.174;18.160;2023-09-19T05:16:11;7.30;;;4.20;;
76228;SDS011;65021;53.174;18.160;2023-09-19T05:18:38;9.00;;;4.00;;
76228;SDS011;65021;53.174;18.160;2023-09-19T05:21:05;6.80;;;4.00;;
76228;SDS011;65021;53.174;18.160;2023-09-19T05:23:31;9.80;;;4.10;;
76228;SDS011;65021;53.174;18.160;2023-09-19T05:25:58;9.10;;;4.00;;
76228;SDS011;65021;53.174;18.160;2023-09-19T05:28:26;8.10;;;3.90;;
76228;SDS011;65021;53.174;18.160;2023-09-19T05:30:53;8.30;;;4.30;;
76228;SDS011;65021;53.174;18.160;2023-09-19T05:33:19;10.40;;;4.20;;
76228;SDS011;65021;53.174;18.160;2023-09-19T05:35:49;8.80;;;3.90;;
76228;SDS011;65021;53.174;18.160;2023-09-19T05:38:16;7.20;;;4.00;;
76228;SDS011;65021;53.174;18.160;2023-09-19T05:40:45;8.70;;;4.50;;
76228;SDS011;65021;53.174;18.160;2023-09-19T05:43:13;9.90;;;4.20;;
76228;SDS011;65021;53.174;18.160;2023-09-19T05:45:43;9.30;;;4.50;;
76228;SDS011;65021;53.174;18.160;2023-09-19T05:48:10;12.10;;;4.90;;
76228;SDS011;65021;53.174;18.160;2023-09-19T05:50:40;8.60;;;4.00;;
76228;SDS011;65021;53.174;18.160;2023-09-19T05:53:06;10.30;;;4.10;;
76228;SDS011;65021;53.174;18.160;2023-09-19T05:55:33;6.80;;;4.00;;
76228;SDS011;65021;53.174;18.160;2023-09-19T05:58:00;7.90;;;3.40;;
76228;SDS011;65021;53.174;18.160;2023-09-19T06:00:26;7.30;;;4.10;;
76228;SDS011;65021;53.174;18.160;2023-09-19T06:02:58;11.40;;;4.30;;
76228;SDS011;65021;53.174;18.160;2023-09-19T06:05:26;7.80;;;3.80;;
76228;SDS011;65021;53.174;18.160;2023-09-19T06:07:54;7.10;;;3.30;;
76228;SDS011;65021;53.174;18.160;2023-09-19T06:10:20;11.50;;;4.40;;
76228;SDS011;65021;53.174;18.160;2023-09-19T06:12:47;5.10;;;2.60;;
76228;SDS011;65021;53.174;18.160;2023-09-19T06:15:14;7.20;;;3.70;;
76228;SDS011;65021;53.174;18.160;2023-09-19T06:17:48;9.00;;;3.30;;
76228;SDS011;65021;53.174;18.160;2023-09-19T06:20:15;7.50;;;4.00;;
76228;SDS011;65021;53.174;18.160;2023-09-19T06:22:43;6.00;;;3.50;;
76228;SDS011;65021;53.174;18.160;2023-09-19T06:25:11;5.60;;;3.30;;
76228;SDS011;65021;53.174;18.160;2023-09-19T06:27:48;6.60;;;3.90;;
76228;SDS011;65021;53.174;18.160;2023-09-19T06:30:18;7.10;;;3.40;;
76228;SDS011;65021;53.174;18.160;2023-09-19T06:32:45;6.00;;;3.60;;
76228;SDS011;65021;53.174;18.160;2023-09-19T06:35:15;11.20;;;4.30;;
76228;SDS011;65021;53.174;18.160;2023-09-19T06:37:42;7.60;;;4.30;;
76228;SDS011;65021;53.174;18.160;2023-09-19T06:40:10;4.90;;;2.50;;
76228;SDS011;65021;53.174;18.160;2023-09-19T06:42:44;7.40;;;3.90;;
76228;SDS011;65021;53.174;18.160;2023-09-19T06:45:16;8.20;;;4.10;;
76228;SDS011;65021;53.174;18.160;2023-09-19T06:47:46;7.90;;;4.40;;
76228;SDS011;65021;53.174;18.160;2023-09-19T06:50:19;7.50;;;4.50;;
76228;SDS011;65021;53.174;18.160;2023-09-19T06:52:52;10.30;;;4.60;;
76228;SDS011;65021;53.174;18.160;2023-09-19T06:55:20;7.40;;;4.00;;
76228;SDS011;65021;53.174;18.160;2023-09-19T06:57:50;7.60;;;4.30;;
76228;SDS011;65021;53.174;18.160;2023-09-19T07:00:16;8.30;;;4.40;;
76228;SDS011;65021;53.174;18.160;2023-09-19T07:02:57;6.60;;;4.00;;
76228;SDS011;65021;53.174;18.160;2023-09-19T07:05:27;8.20;;;4.50;;
76228;SDS011;65021;53.174;18.160;2023-09-19T07:07:54;8.00;;;4.20;;
76228;SDS011;65021;53.174;18.160;2023-09-19T07:10:27;7.30;;;4.40;;
76228;SDS011;65021;53.174;18.160;2023-09-19T07:12:55;9.30;;;4.40;;
76228;SDS011;65021;53.174;18.160;2023-09-19T07:15:23;6.80;;;4.20;;
76228;SDS011;65021;53.174;18.160;2023-09-19T07:17:52;8.50;;;4.00;;
76228;SDS011;65021;53.174;18.160;2023-09-19T07:20:20;5.20;;;2.70;;
76228;SDS011;65021;53.174;18.160;2023-09-19T07:22:47;7.30;;;3.90;;
76228;SDS011;65021;53.174;18.160;2023-09-19T07:25:14;7.80;;;4.10;;
76228;SDS011;65021;53.174;18.160;2023-09-19T07:27:41;7.40;;;4.60;;
76228;SDS011;65021;53.174;18.160;2023-09-19T07:30:08;7.00;;;4.90;;
76228;SDS011;65021;53.174;18.160;2023-09-19T07:32:36;7.50;;;4.30;;
76228;SDS011;65021;53.174;18.160;2023-09-19T07:35:04;6.80;;;4.60;;
76228;SDS011;65021;53.174;18.160;2023-09-19T07:37:34;8.10;;;4.50;;
76228;SDS011;65021;53.174;18.160;2023-09-19T07:40:02;8.00;;;4.30;;
76228;SDS011;65021;53.174;18.160;2023-09-19T07:42:33;6.50;;;4.50;;
76228;SDS011;65021;53.174;18.160;2023-09-19T07:45:01;7.40;;;5.00;;
76228;SDS011;65021;53.174;18.160;2023-09-19T07:47:28;7.80;;;5.00;;
76228;SDS011;65021;53.174;18.160;2023-09-19T07:49:56;8.80;;;5.00;;
76228;SDS011;65021;53.174;18.160;2023-09-19T07:52:23;8.50;;;4.80;;
76228;SDS011;65021;53.174;18.160;2023-09-19T07:54:50;8.30;;;4.10;;
76228;SDS011;65021;53.174;18.160;2023-09-19T07:57:17;6.30;;;4.20;;
76228;SDS011;65021;53.174;18.160;2023-09-19T07:59:43;7.50;;;3.90;;
76228;SDS011;65021;53.174;18.160;2023-09-19T08:02:10;7.10;;;4.10;;
76228;SDS011;65021;53.174;18.160;2023-09-19T08:04:42;7.60;;;4.00;;
76228;SDS011;65021;53.174;18.160;2023-09-19T08:07:09;6.90;;;4.10;;
76228;SDS011;65021;53.174;18.160;2023-09-19T08:09:37;7.40;;;4.20;;
76228;SDS011;65021;53.174;18.160;2023-09-19T08:12:05;7.10;;;3.40;;
76228;SDS011;65021;53.174;18.160;2023-09-19T08:14:34;9.90;;;4.10;;
76228;SDS011;65021;53.174;18.160;2023-09-19T08:17:01;6.00;;;3.30;;
76228;SDS011;65021;53.174;18.160;2023-09-19T08:19:27;7.70;;;4.10;;
76228;SDS011;65021;53.174;18.160;2023-09-19T08:21:58;7.30;;;3.80;;
76228;SDS011;65021;53.174;18.160;2023-09-19T08:24:25;9.20;;;4.00;;
76228;SDS011;65021;53.174;18.160;2023-09-19T08:26:56;8.50;;;4.10;;
76228;SDS011;65021;53.174;18.160;2023-09-19T08:29:23;6.00;;;3.50;;
76228;SDS011;65021;53.174;18.160;2023-09-19T08:31:57;7.40;;;3.70;;
76228;SDS011;65021;53.174;18.160;2023-09-19T08:34:24;6.40;;;3.60;;
76228;SDS011;65021;53.174;18.160;2023-09-19T08:36:51;7.90;;;3.80;;
76228;SDS011;65021;53.174;18.160;2023-09-19T08:39:25;9.10;;;4.10;;
76228;SDS011;65021;53.174;18.160;2023-09-19T08:41:59;8.20;;;4.00;;
76228;SDS011;65021;53.174;18.160;2023-09-19T08:44:26;6.80;;;4.30;;
76228;SDS011;65021;53.174;18.160;2023-09-19T08:47:08;12.60;;;4.10;;
76228;SDS011;65021;53.174;18.160;2023-09-19T08:49:57;5.80;;;3.60;;
76228;SDS011;65021;53.174;18.160;2023-09-19T08:52:39;5.60;;;3.40;;
76228;SDS011;65021;53.174;18.160;2023-09-19T08:55:09;7.30;;;3.10;;
76228;SDS011;65021;53.174;18.160;2023-09-19T08:57:46;5.70;;;3.30;;
76228;SDS011;65021;53.174;18.160;2023-09-19T09:00:16;6.30;;;2.90;;
76228;SDS011;65021;53.174;18.160;2023-09-19T09:02:47;8.20;;;3.50;;
76228;SDS011;65021;53.174;18.160;2023-09-19T09:05:15;6.70;;;3.10;;
76228;SDS011;65021;53.174;18.160;2023-09-19T09:07:49;5.60;;;3.00;;
76228;SDS011;65021;53.174;18.160;2023-09-19T09:10:21;6.80;;;2.70;;
76228;SDS011;65021;53.174;18.160;2023-09-19T09:12:51;5.20;;;2.10;;
76228;SDS011;65021;53.174;18.160;2023-09-19T09:15:21;6.00;;;2.80;;
76228;SDS011;65021;53.174;18.160;2023-09-19T09:17:50;6.70;;;2.20;;
76228;SDS011;65021;53.174;18.160;2023-09-19T09:20:19;5.20;;;2.80;;
76228;SDS011;65021;53.174;18.160;2023-09-19T09:22:52;5.60;;;2.90;;
76228;SDS011;65021;53.174;18.160;2023-09-19T09:25:20;4.20;;;2.40;;
76228;SDS011;65021;53.174;18.160;2023-09-19T09:28:00;3.90;;;2.30;;
76228;SDS011;65021;53.174;18.160;2023-09-19T09:30:34;5.00;;;2.10;;
76228;SDS011;65021;53.174;18.160;2023-09-19T09:33:12;4.80;;;2.60;;
76228;SDS011;65021;53.174;18.160;2023-09-19T09:35:50;5.50;;;2.40;;
76228;SDS011;65021;53.174;18.160;2023-09-19T09:38:24;5.80;;;2.50;;
76228;SDS011;65021;53.174;18.160;2023-09-19T09:40:55;5.20;;;2.40;;
76228;SDS011;65021;53.174;18.160;2023-09-19T09:43:34;5.60;;;2.10;;
76228;SDS011;65021;53.174;18.160;2023-09-19T09:48:58;3.60;;;1.80;;
76228;SDS011;65021;53.174;18.160;2023-09-19T09:54:15;4.40;;;1.80;;
76228;SDS011;65021;53.174;18.160;2023-09-19T09:59:43;3.90;;;1.90;;
76228;SDS011;65021;53.174;18.160;2023-09-19T10:02:18;3.60;;;1.60;;
76228;SDS011;65021;53.174;18.160;2023-09-19T10:04:52;4.80;;;1.70;;
76228;SDS011;65021;53.174;18.160;2023-09-19T10:07:36;5.70;;;1.60;;
76228;SDS011;65021;53.174;18.160;2023-09-19T10:10:07;4.30;;;1.70;;
76228;SDS011;65021;53.174;18.160;2023-09-19T10:12:48;4.80;;;1.60;;
76228;SDS011;65021;53.174;18.160;2023-09-19T10:15:18;4.40;;;2.00;;
76228;SDS011;65021;53.174;18.160;2023-09-19T10:17:50;4.30;;;2.30;;
76228;SDS011;65021;53.174;18.160;2023-09-19T10:20:22;4.70;;;1.70;;
76228;SDS011;65021;53.174;18.160;2023-09-19T10:23:08;5.40;;;1.90;;
76228;SDS011;65021;53.174;18.160;2023-09-19T10:28:07;4.50;;;1.60;;
76228;SDS011;65021;53.174;18.160;2023-09-19T10:30:49;3.60;;;1.30;;
76228;SDS011;65021;53.174;18.160;2023-09-19T10:33:18;4.90;;;1.90;;
76228;SDS011;65021;53.174;18.160;2023-09-19T10:35:49;7.00;;;1.40;;
76228;SDS011;65021;53.174;18.160;2023-09-19T10:38:19;3.30;;;1.40;;
76228;SDS011;65021;53.174;18.160;2023-09-19T10:40:49;4.20;;;1.50;;
76228;SDS011;65021;53.174;18.160;2023-09-19T10:43:20;4.40;;;1.80;;
76228;SDS011;65021;53.174;18.160;2023-09-19T10:45:48;5.00;;;1.50;;
76228;SDS011;65021;53.174;18.160;2023-09-19T10:48:16;4.60;;;1.60;;
76228;SDS011;65021;53.174;18.160;2023-09-19T10:50:48;5.10;;;1.60;;
76228;SDS011;65021;53.174;18.160;2023-09-19T10:53:17;4.60;;;1.50;;
76228;SDS011;65021;53.174;18.160;2023-09-19T10:55:49;3.30;;;1.30;;
76228;SDS011;65021;53.174;18.160;2023-09-19T10:58:27;4.50;;;1.70;;
76228;SDS011;65021;53.174;18.160;2023-09-19T11:01:00;3.60;;;1.60;;
76228;SDS011;65021;53.174;18.160;2023-09-19T11:03:38;3.90;;;1.60;;
76228;SDS011;65021;53.174;18.160;2023-09-19T11:06:18;3.80;;;1.10;;
76228;SDS011;65021;53.174;18.160;2023-09-19T11:09:01;4.70;;;1.40;;
76228;SDS011;65021;53.174;18.160;2023-09-19T11:11:47;4.20;;;1.20;;
76228;SDS011;65021;53.174;18.160;2023-09-19T11:30:45;3.50;;;1.30;;
76228;SDS011;65021;53.174;18.160;2023-09-19T11:33:19;3.00;;;1.20;;
76228;SDS011;65021;53.174;18.160;2023-09-19T11:43:49;4.30;;;1.30;;
76228;SDS011;65021;53.174;18.160;2023-09-19T11:46:17;4.00;;;1.30;;
76228;SDS011;65021;53.174;18.160;2023-09-19T11:48:48;4.80;;;1.50;;
76228;SDS011;65021;53.174;18.160;2023-09-19T11:51:16;4.00;;;1.20;;
76228;SDS011;65021;53.174;18.160;2023-09-19T11:53:53;3.80;;;1.50;;
76228;SDS011;65021;53.174;18.160;2023-09-19T11:56:26;2.80;;;1.00;;
76228;SDS011;65021;53.174;18.160;2023-09-19T11:58:57;3.50;;;1.20;;
76228;SDS011;65021;53.174;18.160;2023-09-19T12:01:29;3.90;;;1.50;;
76228;SDS011;65021;53.174;18.160;2023-09-19T12:03:58;4.00;;;1.40;;
76228;SDS011;65021;53.174;18.160;2023-09-19T12:06:28;5.30;;;1.30;;
76228;SDS011;65021;53.174;18.160;2023-09-19T12:08:56;4.20;;;1.40;;
76228;SDS011;65021;53.174;18.160;2023-09-19T12:11:29;5.00;;;1.60;;
76228;SDS011;65021;53.174;18.160;2023-09-19T12:13:59;5.20;;;1.50;;
76228;SDS011;65021;53.174;18.160;2023-09-19T12:16:30;3.20;;;1.10;;
76228;SDS011;65021;53.174;18.160;2023-09-19T12:18:57;2.90;;;1.00;;
76228;SDS011;65021;53.174;18.160;2023-09-19T12:21:28;3.50;;;1.30;;
76228;SDS011;65021;53.174;18.160;2023-09-19T12:24:04;4.50;;;1.30;;
76228;SDS011;65021;53.174;18.160;2023-09-19T12:26:41;3.40;;;1.10;;
76228;SDS011;65021;53.174;18.160;2023-09-19T12:29:18;2.60;;;0.90;;
76228;SDS011;65021;53.174;18.160;2023-09-19T12:31:47;4.20;;;1.30;;
76228;SDS011;65021;53.174;18.160;2023-09-19T12:34:19;5.50;;;1.40;;
76228;SDS011;65021;53.174;18.160;2023-09-19T12:36:46;3.50;;;1.20;;
76228;SDS011;65021;53.174;18.160;2023-09-19T12:39:22;3.70;;;1.20;;
76228;SDS011;65021;53.174;18.160;2023-09-19T12:41:51;6.40;;;1.50;;
76228;SDS011;65021;53.174;18.160;2023-09-19T12:44:19;4.10;;;1.40;;
76228;SDS011;65021;53.174;18.160;2023-09-19T12:46:46;2.80;;;1.20;;
76228;SDS011;65021;53.174;18.160;2023-09-19T12:49:17;3.10;;;1.00;;
76228;SDS011;65021;53.174;18.160;2023-09-19T12:51:47;3.60;;;1.00;;
76228;SDS011;65021;53.174;18.160;2023-09-19T12:54:15;3.50;;;1.20;;
76228;SDS011;65021;53.174;18.160;2023-09-19T12:56:45;4.20;;;1.30;;
76228;SDS011;65021;53.174;18.160;2023-09-19T12:59:14;5.20;;;1.40;;
76228;SDS011;65021;53.174;18.160;2023-09-19T13:01:41;4.90;;;1.60;;
76228;SDS011;65021;53.174;18.160;2023-09-19T13:06:47;5.30;;;1.30;;
76228;SDS011;65021;53.174;18.160;2023-09-19T13:09:19;3.80;;;1.40;;
76228;SDS011;65021;53.174;18.160;2023-09-19T13:11:46;4.40;;;1.40;;
76228;SDS011;65021;53.174;18.160;2023-09-19T13:17:04;5.10;;;1.20;;
76228;SDS011;65021;53.174;18.160;2023-09-19T13:25:07;3.40;;;1.30;;
76228;SDS011;65021;53.174;18.160;2023-09-19T13:27:45;5.10;;;1.50;;
76228;SDS011;65021;53.174;18.160;2023-09-19T13:30:12;3.30;;;1.10;;
76228;SDS011;65021;53.174;18.160;2023-09-19T13:32:39;8.10;;;1.50;;
76228;SDS011;65021;53.174;18.160;2023-09-19T13:35:09;3.80;;;1.40;;
76228;SDS011;65021;53.174;18.160;2023-09-19T13:37:37;3.80;;;1.50;;
76228;SDS011;65021;53.174;18.160;2023-09-19T13:40:08;3.70;;;1.20;;
76228;SDS011;65021;53.174;18.160;2023-09-19T13:42:35;3.60;;;1.30;;
76228;SDS011;65021;53.174;18.160;2023-09-19T13:45:03;4.70;;;1.50;;
76228;SDS011;65021;53.174;18.160;2023-09-19T13:47:33;4.90;;;1.50;;
76228;SDS011;65021;53.174;18.160;2023-09-19T13:50:02;4.90;;;1.60;;
76228;SDS011;65021;53.174;18.160;2023-09-19T13:52:31;3.30;;;1.20;;
76228;SDS011;65021;53.174;18.160;2023-09-19T13:54:58;4.40;;;1.50;;
76228;SDS011;65021;53.174;18.160;2023-09-19T13:57:25;5.20;;;1.60;;
76228;SDS011;65021;53.174;18.160;2023-09-19T13:59:53;3.90;;;1.40;;
76228;SDS011;65021;53.174;18.160;2023-09-19T14:02:21;5.00;;;1.40;;
76228;SDS011;65021;53.174;18.160;2023-09-19T14:04:51;3.30;;;1.30;;
76228;SDS011;65021;53.174;18.160;2023-09-19T14:07:18;4.80;;;1.70;;
76228;SDS011;65021;53.174;18.160;2023-09-19T14:09:46;5.30;;;1.90;;
76228;SDS011;65021;53.174;18.160;2023-09-19T14:12:13;4.10;;;1.40;;
76228;SDS011;65021;53.174;18.160;2023-09-19T14:14:41;6.70;;;1.70;;
76228;SDS011;65021;53.174;18.160;2023-09-19T14:17:08;4.20;;;1.50;;
76228;SDS011;65021;53.174;18.160;2023-09-19T14:19:35;3.50;;;1.50;;
76228;SDS011;65021;53.174;18.160;2023-09-19T14:22:02;3.80;;;1.10;;
76228;SDS011;65021;53.174;18.160;2023-09-19T14:24:33;4.40;;;1.80;;
76228;SDS011;65021;53.174;18.160;2023-09-19T14:27:01;4.60;;;1.80;;
76228;SDS011;65021;53.174;18.160;2023-09-19T14:29:30;5.70;;;2.00;;
76228;SDS011;65021;53.174;18.160;2023-09-19T14:31:57;4.10;;;1.80;;
76228;SDS011;65021;53.174;18.160;2023-09-19T14:34:24;4.10;;;1.40;;
76228;SDS011;65021;53.174;18.160;2023-09-19T14:36:50;4.70;;;1.70;;
76228;SDS011;65021;53.174;18.160;2023-09-19T14:39:17;6.90;;;1.90;;
76228;SDS011;65021;53.174;18.160;2023-09-19T14:41:45;4.30;;;1.80;;
76228;SDS011;65021;53.174;18.160;2023-09-19T14:44:12;5.30;;;2.00;;
76228;SDS011;65021;53.174;18.160;2023-09-19T14:46:39;3.70;;;1.60;;
76228;SDS011;65021;53.174;18.160;2023-09-19T14:49:05;3.90;;;1.30;;
76228;SDS011;65021;53.174;18.160;2023-09-19T14:51:33;3.90;;;1.70;;
76228;SDS011;65021;53.174;18.160;2023-09-19T14:54:01;5.30;;;1.90;;
76228;SDS011;65021;53.174;18.160;2023-09-19T14:56:28;4.70;;;1.50;;
76228;SDS011;65021;53.174;18.160;2023-09-19T14:58:56;3.20;;;1.30;;
76228;SDS011;65021;53.174;18.160;2023-09-19T15:01:22;3.40;;;1.20;;
76228;SDS011;65021;53.174;18.160;2023-09-19T15:03:49;5.50;;;1.70;;
76228;SDS011;65021;53.174;18.160;2023-09-19T15:06:16;5.10;;;1.80;;
76228;SDS011;65021;53.174;18.160;2023-09-19T15:08:43;4.10;;;1.50;;
76228;SDS011;65021;53.174;18.160;2023-09-19T15:11:14;9.50;;;2.30;;
76228;SDS011;65021;53.174;18.160;2023-09-19T15:13:43;4.40;;;1.70;;
76228;SDS011;65021;53.174;18.160;2023-09-19T15:16:11;6.20;;;2.00;;
76228;SDS011;65021;53.174;18.160;2023-09-19T15:18:40;5.60;;;1.90;;
76228;SDS011;65021;53.174;18.160;2023-09-19T15:21:11;6.30;;;2.00;;
76228;SDS011;65021;53.174;18.160;2023-09-19T15:23:39;6.80;;;1.70;;
76228;SDS011;65021;53.174;18.160;2023-09-19T15:26:07;5.00;;;1.90;;
76228;SDS011;65021;53.174;18.160;2023-09-19T15:28:35;8.00;;;2.10;;
76228;SDS011;65021;53.174;18.160;2023-09-19T15:31:09;4.10;;;1.40;;
76228;SDS011;65021;53.174;18.160;2023-09-19T15:33:37;5.70;;;1.30;;
76228;SDS011;65021;53.174;18.160;2023-09-19T15:38:31;5.60;;;1.90;;
76228;SDS011;65021;53.174;18.160;2023-09-19T15:41:19;5.40;;;1.90;;
76228;SDS011;65021;53.174;18.160;2023-09-19T15:43:47;7.40;;;1.90;;
76228;SDS011;65021;53.174;18.160;2023-09-19T15:46:13;4.50;;;2.10;;
76228;SDS011;65021;53.174;18.160;2023-09-19T15:48:41;6.00;;;1.70;;
76228;SDS011;65021;53.174;18.160;2023-09-19T15:51:08;5.20;;;1.80;;
76228;SDS011;65021;53.174;18.160;2023-09-19T15:53:44;5.90;;;2.00;;
76228;SDS011;65021;53.174;18.160;2023-09-19T15:56:13;5.30;;;1.70;;